ZBYN Airport Information

Runway Information
Runway 13 Length 10500 ft width 148 ft
Elevation 2546 ft Threshold 0 ft Heading 127
Runway 31 Length 10500 ft Width 148 ft
Elevation 2575 ft Threshold 0 ft Heading 307
Airport Frequencies
Type TWR Name TAIYUAN TW Frequency 118.25 MHZ
Airport Navaids
Type NDB Name Wolong Frequency 210 KHZ
Type VOR-DME Name Taiyuan Frequency 113100 KHZ
Type NDB Name Zhonghao Frequency 439 KHZ
Airport Weather Information & NOTAM
ADDS - METARS form results

(1008 UTC 22 February 2020)
Data provider http://aviationweather.gov/metar/data/
 
METAR text: ZBYN 221000Z VRB01MPS CAVOK 08/M18 Q1025 NOSIG
Conditions at: ZBYN (TAIYUAN/WUSU , CN) observed 1000 UTC 22 February 2020
Temperature: 8.0°C (46°F)
Dewpoint: -18.0°C (-0°F) [RH = 14%]
Pressure (altimeter): 30.27 inches Hg (1025.0 mb)
Winds: variable direction winds at 2 MPH (2 knots; 1.0 m/s)
Visibility: 6 or more miles (10+ km)
Ceiling: ceiling and visibility are OK
Clouds: unknown
Weather: no significant weather observed at this time

METAR text: ZBYN 220930Z 21002MPS 180V250 CAVOK 08/M19 Q1025 NOSIG
Conditions at: ZBYN (TAIYUAN/WUSU , CN) observed 0930 UTC 22 February 2020
Temperature: 8.0°C (46°F)
Dewpoint: -19.0°C (-2°F) [RH = 13%]
Pressure (altimeter): 30.27 inches Hg (1025.0 mb)
Winds: from the SSW (210 degrees) at 5 MPH (4 knots; 2.1 m/s)
Visibility: 6 or more miles (10+ km)
Ceiling: ceiling and visibility are OK
Clouds: unknown
Weather: no significant weather observed at this time

Forecast for: ZBYN (TAIYUAN/WUSU , CN)
Text: TAF ZBYN 220908Z 2212/2312 09003MPS 6000 NSC TX15/2307Z TNM06/2222Z
Forecast period: 1200 UTC 22 February 2020 to 1200 UTC 23 February 2020
Forecast type: FROM: standard forecast or significant change
Winds: from the E (90 degrees) at 7 MPH (6 knots; 3.1 m/s)
Visibility: 4 miles (6 km)
Ceiling: unknown
Clouds: missing
Weather: no significant weather forecast for this period